createdAt,value
2018-07-21T00:00:55.329Z,93.70
2018-07-21T00:03:25.161Z,93.60
2018-07-21T00:05:54.387Z,93.20
2018-07-21T00:08:24.933Z,93.00
2018-07-21T00:10:55.258Z,93.00
2018-07-21T00:13:25.304Z,93.10
2018-07-21T00:15:54.865Z,93.10
2018-07-21T00:18:27.426Z,93.10
2018-07-21T00:20:56.660Z,93.10
2018-07-21T00:23:27.217Z,93.20
2018-07-21T00:25:58.525Z,93.20
2018-07-21T00:28:28.333Z,93.20
2018-07-21T00:31:02.205Z,93.60
2018-07-21T00:33:33.385Z,93.50
2018-07-21T00:36:03.224Z,93.40
2018-07-21T00:38:39.612Z,93.50
2018-07-21T00:41:12.198Z,93.70
2018-07-21T00:43:43.626Z,93.90
2018-07-21T00:46:22.378Z,93.90
2018-07-21T00:49:00.569Z,94.00
2018-07-21T00:51:43.477Z,94.50
2018-07-21T00:54:22.602Z,94.40
2018-07-21T00:59:45.383Z,93.00
2018-07-21T01:02:18.098Z,92.40
2018-07-21T01:04:56.293Z,91.80
2018-07-21T01:10:07.992Z,91.30
2018-07-21T01:12:46.112Z,91.30
2018-07-21T01:15:17.837Z,91.70
2018-07-21T01:17:53.416Z,91.20
2018-07-21T01:20:29.676Z,91.10
2018-07-21T01:23:01.425Z,91.20
2018-07-21T01:25:30.724Z,91.30
2018-07-21T01:28:10.027Z,91.20
2018-07-21T01:30:45.877Z,91.30
2018-07-21T01:33:15.747Z,91.30
2018-07-21T01:38:16.366Z,91.60
2018-07-21T01:40:45.973Z,91.80
2018-07-21T01:43:15.310Z,92.00
2018-07-21T01:45:47.262Z,92.10
2018-07-21T01:48:16.404Z,92.60
2018-07-21T01:50:45.708Z,93.00
2018-07-21T01:53:15.953Z,93.30
2018-07-21T01:55:45.988Z,93.60
2018-07-21T01:58:15.138Z,93.80
2018-07-21T02:00:46.135Z,94.30
2018-07-21T02:03:17.090Z,95.40
2018-07-21T02:05:48.193Z,96.60
2018-07-21T02:08:17.409Z,98.80
2018-07-21T02:10:46.569Z,99.50
2018-07-21T02:13:18.486Z,99.90
2018-07-21T02:18:18.317Z,99.90
2018-07-21T02:20:48.448Z,99.90
2018-07-21T02:23:20.716Z,99.90
2018-07-21T02:25:51.204Z,99.90
2018-07-21T02:28:21.600Z,99.90
2018-07-21T02:30:50.757Z,99.90
2018-07-21T02:38:21.509Z,99.90
2018-07-21T02:40:52.857Z,99.90
2018-07-21T02:43:22.860Z,99.90
2018-07-21T02:45:53.029Z,99.90
2018-07-21T02:48:28.403Z,99.90
2018-07-21T02:50:59.537Z,99.90
2018-07-21T02:53:33.701Z,99.90
2018-07-21T02:56:05.015Z,99.90
2018-07-21T02:58:35.152Z,99.90
2018-07-21T03:01:07.569Z,99.90
2018-07-21T03:03:39.367Z,99.90
2018-07-21T03:06:10.338Z,99.90
2018-07-21T03:08:42.508Z,99.90
2018-07-21T03:11:13.312Z,99.90
2018-07-21T03:13:49.973Z,99.90
2018-07-21T03:16:21.467Z,99.90
2018-07-21T03:21:25.857Z,99.90
2018-07-21T03:23:57.304Z,99.90
2018-07-21T03:26:27.356Z,99.90
2018-07-21T03:28:56.863Z,99.90
2018-07-21T03:31:28.852Z,99.90
2018-07-21T03:33:58.652Z,99.90
2018-07-21T03:36:31.200Z,99.90
2018-07-21T03:39:03.181Z,99.90
2018-07-21T03:41:36.397Z,99.90
2018-07-21T03:46:42.113Z,99.90
2018-07-21T03:49:16.328Z,99.90
2018-07-21T03:51:49.264Z,99.90
2018-07-21T03:54:19.384Z,99.90
2018-07-21T03:59:25.290Z,99.90
2018-07-21T04:01:55.380Z,99.90
2018-07-21T04:07:07.065Z,99.90
2018-07-21T04:09:38.312Z,99.90
2018-07-21T04:12:09.988Z,99.90
2018-07-21T04:14:43.564Z,99.90
2018-07-21T04:17:20.636Z,99.90
2018-07-21T04:19:55.565Z,99.90
2018-07-21T04:22:26.982Z,99.90
2018-07-21T04:24:56.873Z,99.90
2018-07-21T04:27:32.821Z,99.90
2018-07-21T04:30:06.509Z,99.90
2018-07-21T04:32:37.824Z,99.90
2018-07-21T04:35:07.684Z,99.90
2018-07-21T04:37:40.339Z,99.90
2018-07-21T04:40:10.646Z,99.90
2018-07-21T04:42:41.216Z,99.90
2018-07-21T04:45:11.512Z,99.90
2018-07-21T04:47:45.380Z,99.90
2018-07-21T04:50:16.144Z,99.90
2018-07-21T04:52:46.700Z,99.90
2018-07-21T04:55:16.704Z,99.90
2018-07-21T04:57:47.452Z,99.90
2018-07-21T05:00:19.208Z,99.90
2018-07-21T05:02:50.628Z,99.90
2018-07-21T05:05:24.869Z,99.90
2018-07-21T05:07:57.440Z,99.90
2018-07-21T05:10:29.432Z,99.90
2018-07-21T05:13:00.752Z,99.90
2018-07-21T05:15:31.679Z,99.90
2018-07-21T05:18:03.227Z,99.90
2018-07-21T05:20:35.618Z,99.90
2018-07-21T05:23:06.577Z,99.90
2018-07-21T05:25:39.752Z,99.90
2018-07-21T05:28:10.164Z,99.90
2018-07-21T05:30:44.763Z,99.90
2018-07-21T05:33:18.293Z,99.90
2018-07-21T05:35:49.816Z,99.90
2018-07-21T05:38:19.356Z,99.90
2018-07-21T05:40:49.665Z,99.90
2018-07-21T05:43:25.213Z,99.90
2018-07-21T05:46:01.273Z,99.90
2018-07-21T05:48:36.848Z,99.90
2018-07-21T05:51:12.878Z,99.90
2018-07-21T05:53:44.348Z,99.90
2018-07-21T05:56:16.312Z,99.90
2018-07-21T06:01:19.039Z,99.90
2018-07-21T06:03:49.072Z,99.90
2018-07-21T06:08:54.579Z,99.90
2018-07-21T06:11:28.197Z,99.90
2018-07-21T06:13:59.028Z,99.90
2018-07-21T06:16:30.054Z,99.90
2018-07-21T06:19:02.290Z,99.90
2018-07-21T06:24:05.634Z,99.90
2018-07-21T06:26:37.097Z,99.90
2018-07-21T06:29:09.673Z,99.90
2018-07-21T06:31:41.784Z,99.90
2018-07-21T06:34:14.609Z,99.90
2018-07-21T06:36:46.277Z,99.90
2018-07-21T06:39:17.628Z,99.90
2018-07-21T06:41:47.768Z,99.90
2018-07-21T06:44:19.353Z,99.90
2018-07-21T06:46:50.137Z,99.90
2018-07-21T06:49:20.409Z,99.90
2018-07-21T06:51:51.216Z,99.90
2018-07-21T06:54:23.324Z,99.90
2018-07-21T06:56:56.225Z,99.90
2018-07-21T06:59:26.673Z,99.90
2018-07-21T07:02:06.976Z,99.90
2018-07-21T07:04:40.157Z,99.90
2018-07-21T07:07:11.320Z,99.90
2018-07-21T07:12:12.730Z,99.90
2018-07-21T07:14:43.545Z,99.90
2018-07-21T07:17:13.906Z,99.90
2018-07-21T07:19:55.713Z,99.90
2018-07-21T07:22:27.466Z,99.90
2018-07-21T07:25:00.228Z,99.90
2018-07-21T07:27:33.290Z,99.90
2018-07-21T07:30:06.529Z,99.90
2018-07-21T07:32:37.963Z,99.90
2018-07-21T07:35:11.646Z,99.90
2018-07-21T07:37:49.004Z,99.90
2018-07-21T07:40:28.086Z,99.90
2018-07-21T07:43:03.637Z,99.90
2018-07-21T07:45:37.861Z,99.90
2018-07-21T07:48:09.627Z,99.90
2018-07-21T07:50:41.468Z,99.90
2018-07-21T07:53:16.293Z,99.90
2018-07-21T07:55:48.300Z,99.90
2018-07-21T07:58:22.267Z,99.90
2018-07-21T08:00:53.412Z,99.90
2018-07-21T08:03:25.174Z,99.90
2018-07-21T08:05:58.336Z,99.90
2018-07-21T08:08:30.705Z,99.90
2018-07-21T08:11:01.841Z,99.90
2018-07-21T08:16:01.540Z,99.90
2018-07-21T08:18:33.749Z,99.90
2018-07-21T08:21:04.004Z,99.90
2018-07-21T08:23:40.067Z,99.90
2018-07-21T08:26:12.049Z,99.90
2018-07-21T08:28:42.476Z,99.90
2018-07-21T08:31:12.528Z,99.90
2018-07-21T08:33:43.504Z,99.90
2018-07-21T08:38:51.326Z,99.90
2018-07-21T08:41:23.673Z,99.90
2018-07-21T08:43:59.504Z,99.90
2018-07-21T08:46:32.774Z,99.90
2018-07-21T08:49:04.296Z,99.90
2018-07-21T08:51:34.926Z,99.90
2018-07-21T08:54:07.146Z,99.90
2018-07-21T08:56:36.960Z,99.90
2018-07-21T09:01:38.344Z,99.90
2018-07-21T09:04:08.833Z,99.90
2018-07-21T09:06:41.821Z,99.90
2018-07-21T09:09:13.481Z,99.90
2018-07-21T09:11:44.257Z,99.90
2018-07-21T09:14:14.743Z,99.90
2018-07-21T09:16:44.684Z,99.90
2018-07-21T09:21:44.809Z,99.90
2018-07-21T09:24:16.482Z,99.90
2018-07-21T09:26:50.737Z,99.90
2018-07-21T09:29:22.348Z,99.90
2018-07-21T09:31:52.724Z,99.90
2018-07-21T09:34:27.320Z,99.90
2018-07-21T09:36:58.287Z,99.90
2018-07-21T09:39:29.369Z,99.90
2018-07-21T09:42:02.561Z,99.90
2018-07-21T09:44:34.500Z,99.50
2018-07-21T09:47:05.828Z,98.20
2018-07-21T09:49:43.245Z,98.80
2018-07-21T09:52:19.856Z,97.20
2018-07-21T09:55:01.221Z,98.50
2018-07-21T09:57:42.788Z,98.70
2018-07-21T10:00:28.168Z,99.40
2018-07-21T10:03:16.573Z,96.20
2018-07-21T10:05:57.376Z,94.00
2018-07-21T10:11:19.440Z,93.00
2018-07-21T10:14:08.497Z,91.80
2018-07-21T10:16:43.675Z,88.60
2018-07-21T10:21:51.862Z,87.70
2018-07-21T10:27:13.748Z,73.10
2018-07-21T10:29:45.297Z,73.30
2018-07-21T10:34:56.444Z,69.90
2018-07-21T10:37:26.617Z,68.50
2018-07-21T10:39:55.841Z,69.00
2018-07-21T10:42:29.262Z,66.60
2018-07-21T10:45:01.531Z,66.00
2018-07-21T10:47:42.661Z,67.20
2018-07-21T10:50:12.624Z,64.90
2018-07-21T10:52:41.772Z,73.40
2018-07-21T10:55:10.963Z,68.70
2018-07-21T10:57:40.372Z,70.20
2018-07-21T11:00:09.839Z,70.40
2018-07-21T11:02:40.611Z,67.30
2018-07-21T11:05:09.860Z,65.60
2018-07-21T11:07:39.729Z,65.90
2018-07-21T11:12:37.998Z,62.90
2018-07-21T11:15:10.281Z,58.70
2018-07-21T11:17:43.340Z,55.70
2018-07-21T11:20:13.495Z,58.20
2018-07-21T11:22:43.811Z,57.70
2018-07-21T11:25:13.640Z,61.60
2018-07-21T11:30:12.444Z,64.80
2018-07-21T11:32:41.725Z,64.00
2018-07-21T11:35:14.557Z,64.40
2018-07-21T11:37:44.456Z,68.10
2018-07-21T11:40:14.665Z,61.40
2018-07-21T11:45:14.085Z,61.10
2018-07-21T11:47:45.712Z,66.50
2018-07-21T11:50:20.768Z,65.60
2018-07-21T11:52:54.115Z,65.20
2018-07-21T11:55:27.457Z,68.50
2018-07-21T11:57:56.607Z,66.90
2018-07-21T12:00:26.836Z,65.00
2018-07-21T12:03:05.573Z,65.70
2018-07-21T12:05:34.769Z,66.10
2018-07-21T12:08:05.328Z,69.00
2018-07-21T12:10:38.204Z,69.80
2018-07-21T12:13:13.147Z,70.20
2018-07-21T12:15:46.563Z,67.90
2018-07-21T12:20:51.584Z,65.10
2018-07-21T12:23:24.860Z,66.80
2018-07-21T12:25:57.223Z,66.40
2018-07-21T12:28:32.501Z,60.90
2018-07-21T12:31:07.329Z,60.90
2018-07-21T12:33:39.383Z,63.90
2018-07-21T12:36:12.164Z,65.70
2018-07-21T12:38:46.487Z,64.40
2018-07-21T12:41:20.037Z,61.50
2018-07-21T12:43:56.441Z,61.50
2018-07-21T12:46:28.618Z,61.80
2018-07-21T12:48:58.687Z,61.60
2018-07-21T12:51:32.831Z,60.60
2018-07-21T12:54:04.830Z,58.00
2018-07-21T12:56:35.984Z,58.70
2018-07-21T12:59:06.673Z,59.90
2018-07-21T13:01:38.580Z,62.30
2018-07-21T13:04:09.465Z,62.10
2018-07-21T13:06:42.201Z,62.00
2018-07-21T13:09:14.718Z,58.80
2018-07-21T13:11:50.952Z,59.00
2018-07-21T13:16:53.595Z,58.90
2018-07-21T13:19:24.749Z,57.90
2018-07-21T13:21:54.692Z,57.00
2018-07-21T13:24:25.220Z,55.40
2018-07-21T13:27:02.793Z,55.60
2018-07-21T13:29:34.928Z,54.30
2018-07-21T13:32:06.704Z,54.80
2018-07-21T13:34:37.265Z,55.90
2018-07-21T13:37:09.000Z,55.10
2018-07-21T13:39:45.277Z,55.20
2018-07-21T13:42:22.024Z,57.30
2018-07-21T13:44:57.393Z,56.00
2018-07-21T13:47:28.689Z,57.80
2018-07-21T13:49:58.761Z,58.90
2018-07-21T13:52:29.815Z,58.40
2018-07-21T13:54:59.346Z,57.00
2018-07-21T13:57:30.265Z,59.80
2018-07-21T14:00:01.054Z,57.70
2018-07-21T14:02:32.058Z,56.70
2018-07-21T14:07:34.199Z,57.40
2018-07-21T14:10:08.828Z,55.40
2018-07-21T14:12:39.605Z,55.50
2018-07-21T14:15:10.168Z,56.90
2018-07-21T14:17:40.922Z,56.90
2018-07-21T14:20:12.980Z,55.20
2018-07-21T14:22:44.649Z,57.00
2018-07-21T14:30:19.620Z,56.00
2018-07-21T14:32:49.549Z,56.70
2018-07-21T14:35:19.590Z,58.20
2018-07-21T14:40:18.268Z,58.80
2018-07-21T14:42:48.160Z,59.60
2018-07-21T14:47:50.392Z,61.00
2018-07-21T14:50:20.340Z,63.80
2018-07-21T14:52:51.083Z,66.20
2018-07-21T14:55:22.159Z,68.90
2018-07-21T14:57:56.130Z,69.30
2018-07-21T15:00:30.865Z,68.30
2018-07-21T15:03:01.098Z,68.40
2018-07-21T15:05:32.333Z,66.60
2018-07-21T15:08:04.189Z,68.90
2018-07-21T15:10:36.154Z,69.70
2018-07-21T15:13:06.065Z,73.30
2018-07-21T15:15:37.646Z,77.00
2018-07-21T15:18:11.316Z,80.10
2018-07-21T15:20:45.650Z,80.90
2018-07-21T15:23:15.764Z,81.80
2018-07-21T15:25:46.308Z,82.00
2018-07-21T15:28:17.832Z,83.20
2018-07-21T15:33:22.895Z,84.70
2018-07-21T15:35:55.786Z,85.50
2018-07-21T15:38:27.442Z,85.90
2018-07-21T15:40:58.395Z,87.00
2018-07-21T15:43:27.880Z,89.70
2018-07-21T15:46:00.773Z,91.00
2018-07-21T15:48:34.863Z,91.60
2018-07-21T15:51:07.416Z,91.80
2018-07-21T15:53:38.325Z,92.00
2018-07-21T15:56:08.127Z,91.80
2018-07-21T15:58:41.281Z,91.10
2018-07-21T16:01:13.472Z,91.90
2018-07-21T16:03:48.329Z,96.60
2018-07-21T16:06:18.313Z,99.90
2018-07-21T16:08:54.732Z,99.90
2018-07-21T16:11:28.794Z,99.90
2018-07-21T16:14:04.752Z,99.90
2018-07-21T16:16:43.633Z,99.90
2018-07-21T16:19:19.376Z,99.90
2018-07-21T16:21:55.180Z,99.90
2018-07-21T16:24:32.489Z,99.90
2018-07-21T16:27:05.535Z,99.90
2018-07-21T16:29:36.144Z,99.90
2018-07-21T16:32:13.888Z,99.90
2018-07-21T16:34:49.119Z,99.90
2018-07-21T16:37:20.333Z,99.90
2018-07-21T16:39:54.875Z,99.90
2018-07-21T16:42:27.864Z,99.90
2018-07-21T16:45:06.105Z,99.90
2018-07-21T16:47:36.732Z,99.90
2018-07-21T16:50:10.132Z,99.90
2018-07-21T16:52:41.861Z,99.90
2018-07-21T16:55:13.152Z,99.90
2018-07-21T16:57:44.997Z,99.90
2018-07-21T17:00:15.997Z,99.90
2018-07-21T17:05:20.360Z,99.90
2018-07-21T17:07:54.343Z,99.90
2018-07-21T17:10:28.456Z,99.90
2018-07-21T17:13:00.924Z,99.90
2018-07-21T17:15:38.238Z,99.90
2018-07-21T17:18:13.017Z,99.90
2018-07-21T17:20:43.925Z,99.90
2018-07-21T17:23:15.125Z,99.90
2018-07-21T17:25:49.485Z,99.90
2018-07-21T17:28:19.097Z,99.90
2018-07-21T17:30:56.050Z,99.90
2018-07-21T17:33:26.710Z,99.90
2018-07-21T17:35:56.597Z,99.90
2018-07-21T17:38:28.825Z,99.90
2018-07-21T17:41:01.168Z,99.90
2018-07-21T17:43:32.065Z,99.90
2018-07-21T17:48:32.954Z,99.90
2018-07-21T17:51:02.952Z,99.90
2018-07-21T17:53:33.609Z,99.90
2018-07-21T17:58:41.737Z,99.90
2018-07-21T18:01:13.004Z,99.90
2018-07-21T18:03:43.483Z,99.90
2018-07-21T18:06:19.665Z,99.90
2018-07-21T18:08:50.691Z,99.90
2018-07-21T18:11:21.324Z,99.90
2018-07-21T18:13:52.428Z,99.90
2018-07-21T18:16:22.679Z,99.90
2018-07-21T18:18:51.753Z,99.90
2018-07-21T18:21:24.412Z,99.90
2018-07-21T18:23:55.973Z,99.90
2018-07-21T18:26:28.918Z,99.90
2018-07-21T18:28:58.424Z,99.90
2018-07-21T18:31:27.862Z,99.90
2018-07-21T18:33:58.823Z,99.90
2018-07-21T18:36:29.554Z,99.90
2018-07-21T18:38:59.669Z,99.90
2018-07-21T18:41:31.288Z,99.90
2018-07-21T18:44:06.177Z,99.90
2018-07-21T18:49:09.665Z,99.90
2018-07-21T18:51:40.540Z,99.90
2018-07-21T18:54:11.756Z,99.90
2018-07-21T18:56:44.699Z,99.90
2018-07-21T18:59:17.732Z,99.90
2018-07-21T19:01:48.625Z,99.90
2018-07-21T19:12:36.716Z,99.90
2018-07-21T19:15:23.243Z,99.90
2018-07-21T19:17:56.659Z,99.90
2018-07-21T19:20:39.679Z,99.90
2018-07-21T19:23:15.872Z,99.90
2018-07-21T19:25:55.814Z,99.90
2018-07-21T19:28:30.536Z,99.90
2018-07-21T19:31:08.832Z,99.90
2018-07-21T19:33:57.945Z,99.90
2018-07-21T19:36:38.033Z,99.90
2018-07-21T19:39:12.276Z,99.90
2018-07-21T19:41:57.930Z,99.90
2018-07-21T19:44:35.689Z,99.90
2018-07-21T19:47:09.317Z,99.90
2018-07-21T19:49:39.648Z,99.90
2018-07-21T19:52:15.808Z,99.90
2018-07-21T19:54:47.156Z,99.90
2018-07-21T19:57:19.477Z,99.90
2018-07-21T19:59:48.639Z,99.90
2018-07-21T20:02:17.769Z,99.90
2018-07-21T20:04:47.224Z,99.90
2018-07-21T20:07:16.371Z,99.90
2018-07-21T20:09:45.520Z,99.90
2018-07-21T20:12:14.963Z,99.90
2018-07-21T20:14:44.040Z,99.90
2018-07-21T20:17:13.289Z,99.90
2018-07-21T20:19:43.418Z,99.90
2018-07-21T20:22:12.969Z,99.90
2018-07-21T20:24:42.112Z,99.90
2018-07-21T20:32:10.597Z,99.90
2018-07-21T20:34:40.384Z,99.90
2018-07-21T20:37:09.520Z,99.90
2018-07-21T20:39:40.442Z,99.90
2018-07-21T20:44:39.480Z,99.90
2018-07-21T20:49:40.192Z,99.90
2018-07-21T20:52:10.637Z,99.90
2018-07-21T20:54:40.160Z,99.90
2018-07-21T20:59:40.953Z,99.90
2018-07-21T21:02:20.274Z,99.90
2018-07-21T21:04:50.817Z,99.90
2018-07-21T21:07:24.217Z,99.90
2018-07-21T21:09:59.050Z,99.90
2018-07-21T21:12:29.679Z,99.90
2018-07-21T21:20:03.207Z,99.90
2018-07-21T21:22:32.945Z,99.90
2018-07-21T21:25:03.817Z,99.90
2018-07-21T21:27:34.504Z,99.90
2018-07-21T21:30:06.253Z,99.90
2018-07-21T21:32:37.641Z,99.90
2018-07-21T21:35:07.315Z,99.90
2018-07-21T21:37:41.388Z,99.90
2018-07-21T21:42:42.244Z,99.90
2018-07-21T21:47:43.771Z,99.90
2018-07-21T21:50:19.545Z,99.90
2018-07-21T21:52:50.170Z,99.90
2018-07-21T21:55:21.624Z,99.90
2018-07-21T21:57:53.539Z,99.90
2018-07-21T22:00:25.328Z,99.90
2018-07-21T22:02:55.656Z,99.90
2018-07-21T22:05:27.319Z,99.90
2018-07-21T22:10:30.035Z,99.90
2018-07-21T22:15:29.610Z,99.90
2018-07-21T22:17:59.956Z,99.90
2018-07-21T22:20:30.948Z,99.90
2018-07-21T22:23:01.530Z,99.90
2018-07-21T22:25:34.924Z,99.90
2018-07-21T22:28:06.819Z,99.90
2018-07-21T22:33:13.581Z,99.90
2018-07-21T22:35:46.148Z,99.90
2018-07-21T22:38:18.357Z,99.90
2018-07-21T22:40:52.284Z,99.90
2018-07-21T22:43:25.484Z,99.90
2018-07-21T22:45:55.721Z,99.90
2018-07-21T22:48:26.593Z,99.90
2018-07-21T22:50:58.140Z,99.90
2018-07-21T22:53:28.079Z,99.90
2018-07-21T22:56:02.965Z,99.90
2018-07-21T22:58:35.439Z,99.90
2018-07-21T23:01:07.244Z,99.90
2018-07-21T23:03:37.339Z,99.90
2018-07-21T23:06:11.875Z,99.90
2018-07-21T23:08:41.766Z,99.90
2018-07-21T23:11:12.794Z,99.90
2018-07-21T23:13:44.668Z,99.90
2018-07-21T23:16:16.324Z,99.90
2018-07-21T23:18:45.814Z,99.90
2018-07-21T23:21:15.845Z,99.90
2018-07-21T23:23:45.913Z,99.90
2018-07-21T23:28:50.541Z,99.90
2018-07-21T23:31:21.641Z,99.90
2018-07-21T23:33:53.398Z,99.90
2018-07-21T23:36:23.411Z,99.90
2018-07-21T23:39:01.825Z,99.90
2018-07-21T23:41:31.655Z,99.90
2018-07-21T23:44:06.711Z,99.90
2018-07-21T23:46:38.857Z,99.90
2018-07-21T23:49:09.894Z,99.90
2018-07-21T23:51:46.971Z,99.90
2018-07-21T23:54:18.597Z,99.90
2018-07-21T23:56:48.955Z,99.90
2018-07-21T23:59:19.246Z,99.90
